sensor_id;sensor_type;location;lat;lon;timestamp;temperature;humidity
11264;DHT22;5689;48.798;9.070;2022-11-15T00:01:24;11.20;99.90
11264;DHT22;5689;48.798;9.070;2022-11-15T00:04:10;11.20;99.90
11264;DHT22;5689;48.798;9.070;2022-11-15T00:06:58;11.30;99.90
11264;DHT22;5689;48.798;9.070;2022-11-15T00:09:45;11.20;99.90
11264;DHT22;5689;48.798;9.070;2022-11-15T00:12:31;11.20;99.90
11264;DHT22;5689;48.798;9.070;2022-11-15T00:15:17;11.10;99.90
11264;DHT22;5689;48.798;9.070;2022-11-15T00:18:05;11.10;99.90
11264;DHT22;5689;48.798;9.070;2022-11-15T00:20:51;11.10;99.90
11264;DHT22;5689;48.798;9.070;2022-11-15T00:23:40;11.20;99.90
11264;DHT22;5689;48.798;9.070;2022-11-15T00:26:26;11.20;99.90
11264;DHT22;5689;48.798;9.070;2022-11-15T00:29:12;11.20;99.90
11264;DHT22;5689;48.798;9.070;2022-11-15T00:31:59;11.20;99.90
11264;DHT22;5689;48.798;9.070;2022-11-15T00:34:45;11.30;99.90
11264;DHT22;5689;48.798;9.070;2022-11-15T00:37:32;11.20;99.90
11264;DHT22;5689;48.798;9.070;2022-11-15T00:40:19;11.30;99.90
11264;DHT22;5689;48.798;9.070;2022-11-15T00:43:06;11.30;99.90
11264;DHT22;5689;48.798;9.070;2022-11-15T00:45:52;11.20;99.90
11264;DHT22;5689;48.798;9.070;2022-11-15T00:48:38;11.20;99.90
11264;DHT22;5689;48.798;9.070;2022-11-15T00:51:25;11.20;99.90
11264;DHT22;5689;48.798;9.070;2022-11-15T00:54:11;11.10;99.90
11264;DHT22;5689;48.798;9.070;2022-11-15T00:56:58;11.10;99.90
11264;DHT22;5689;48.798;9.070;2022-11-15T00:59:45;10.90;99.90
11264;DHT22;5689;48.798;9.070;2022-11-15T01:02:31;10.90;99.90
11264;DHT22;5689;48.798;9.070;2022-11-15T01:05:17;10.90;99.90
11264;DHT22;5689;48.798;9.070;2022-11-15T01:08:04;10.80;99.90
11264;DHT22;5689;48.798;9.070;2022-11-15T01:10:50;10.60;99.90
11264;DHT22;5689;48.798;9.070;2022-11-15T01:13:39;10.70;99.90
11264;DHT22;5689;48.798;9.070;2022-11-15T01:16:26;10.60;99.90
11264;DHT22;5689;48.798;9.070;2022-11-15T01:19:12;10.50;99.90
11264;DHT22;5689;48.798;9.070;2022-11-15T01:21:58;10.40;99.90
11264;DHT22;5689;48.798;9.070;2022-11-15T01:24:45;10.20;99.90
11264;DHT22;5689;48.798;9.070;2022-11-15T01:27:31;10.00;99.90
11264;DHT22;5689;48.798;9.070;2022-11-15T01:30:19;9.80;99.90
11264;DHT22;5689;48.798;9.070;2022-11-15T01:33:05;9.60;99.90
11264;DHT22;5689;48.798;9.070;2022-11-15T01:35:52;9.50;99.90
11264;DHT22;5689;48.798;9.070;2022-11-15T01:38:38;9.30;99.90
11264;DHT22;5689;48.798;9.070;2022-11-15T01:41:27;9.40;99.90
11264;DHT22;5689;48.798;9.070;2022-11-15T01:44:39;9.30;99.90
11264;DHT22;5689;48.798;9.070;2022-11-15T01:47:30;9.20;99.90
11264;DHT22;5689;48.798;9.070;2022-11-15T01:50:21;9.00;99.90
11264;DHT22;5689;48.798;9.070;2022-11-15T01:53:08;9.00;99.90
11264;DHT22;5689;48.798;9.070;2022-11-15T01:55:56;8.90;99.90
11264;DHT22;5689;48.798;9.070;2022-11-15T01:58:43;8.80;99.90
11264;DHT22;5689;48.798;9.070;2022-11-15T02:01:32;8.90;99.90
11264;DHT22;5689;48.798;9.070;2022-11-15T02:04:23;9.00;99.90
11264;DHT22;5689;48.798;9.070;2022-11-15T02:07:12;9.10;99.90
11264;DHT22;5689;48.798;9.070;2022-11-15T02:10:02;8.90;99.90
11264;DHT22;5689;48.798;9.070;2022-11-15T02:12:50;8.90;99.90
11264;DHT22;5689;48.798;9.070;2022-11-15T02:15:41;8.70;99.90
11264;DHT22;5689;48.798;9.070;2022-11-15T02:18:34;8.60;99.90
11264;DHT22;5689;48.798;9.070;2022-11-15T02:21:28;8.60;99.90
11264;DHT22;5689;48.798;9.070;2022-11-15T02:24:47;8.60;99.90
11264;DHT22;5689;48.798;9.070;2022-11-15T02:27:53;8.50;99.90
11264;DHT22;5689;48.798;9.070;2022-11-15T02:30:44;8.60;99.90
11264;DHT22;5689;48.798;9.070;2022-11-15T02:33:36;8.60;99.90
11264;DHT22;5689;48.798;9.070;2022-11-15T02:36:34;8.50;99.90
11264;DHT22;5689;48.798;9.070;2022-11-15T02:39:28;8.50;99.90
11264;DHT22;5689;48.798;9.070;2022-11-15T02:42:19;8.60;99.90
11264;DHT22;5689;48.798;9.070;2022-11-15T02:45:28;8.80;99.90
11264;DHT22;5689;48.798;9.070;2022-11-15T02:48:17;8.60;99.90
11264;DHT22;5689;48.798;9.070;2022-11-15T02:51:05;8.50;99.90
11264;DHT22;5689;48.798;9.070;2022-11-15T02:53:52;8.50;99.90
11264;DHT22;5689;48.798;9.070;2022-11-15T02:56:39;8.50;99.90
11264;DHT22;5689;48.798;9.070;2022-11-15T02:59:47;8.40;99.90
11264;DHT22;5689;48.798;9.070;2022-11-15T03:02:57;8.50;99.90
11264;DHT22;5689;48.798;9.070;2022-11-15T03:05:55;8.30;99.90
11264;DHT22;5689;48.798;9.070;2022-11-15T03:08:50;8.20;99.90
11264;DHT22;5689;48.798;9.070;2022-11-15T03:11:40;8.20;99.90
11264;DHT22;5689;48.798;9.070;2022-11-15T03:14:30;8.10;99.90
11264;DHT22;5689;48.798;9.070;2022-11-15T03:17:23;8.20;99.90
11264;DHT22;5689;48.798;9.070;2022-11-15T03:20:12;8.50;99.90
11264;DHT22;5689;48.798;9.070;2022-11-15T03:23:05;9.00;99.90
11264;DHT22;5689;48.798;9.070;2022-11-15T03:25:52;9.60;99.90
11264;DHT22;5689;48.798;9.070;2022-11-15T03:28:43;9.90;99.90
11264;DHT22;5689;48.798;9.070;2022-11-15T03:31:33;10.20;99.90
11264;DHT22;5689;48.798;9.070;2022-11-15T03:34:38;10.40;99.90
11264;DHT22;5689;48.798;9.070;2022-11-15T03:37:31;10.40;99.90
11264;DHT22;5689;48.798;9.070;2022-11-15T03:40:25;10.40;99.90
11264;DHT22;5689;48.798;9.070;2022-11-15T03:43:23;10.40;99.90
11264;DHT22;5689;48.798;9.070;2022-11-15T03:46:13;10.30;99.90
11264;DHT22;5689;48.798;9.070;2022-11-15T03:49:07;10.10;99.90
11264;DHT22;5689;48.798;9.070;2022-11-15T03:51:56;9.60;99.90
11264;DHT22;5689;48.798;9.070;2022-11-15T03:54:49;9.50;99.90
11264;DHT22;5689;48.798;9.070;2022-11-15T03:57:36;9.30;99.90
11264;DHT22;5689;48.798;9.070;2022-11-15T04:00:23;9.10;99.90
11264;DHT22;5689;48.798;9.070;2022-11-15T04:03:09;9.70;99.90
11264;DHT22;5689;48.798;9.070;2022-11-15T04:05:56;10.10;99.90
11264;DHT22;5689;48.798;9.070;2022-11-15T04:08:42;10.40;99.90
11264;DHT22;5689;48.798;9.070;2022-11-15T04:11:29;10.60;99.90
11264;DHT22;5689;48.798;9.070;2022-11-15T04:14:16;10.70;99.90
11264;DHT22;5689;48.798;9.070;2022-11-15T04:17:03;10.60;99.90
11264;DHT22;5689;48.798;9.070;2022-11-15T04:19:49;10.70;99.90
11264;DHT22;5689;48.798;9.070;2022-11-15T04:22:54;10.70;99.90
11264;DHT22;5689;48.798;9.070;2022-11-15T04:26:00;10.80;99.90
11264;DHT22;5689;48.798;9.070;2022-11-15T04:28:47;10.90;99.90
11264;DHT22;5689;48.798;9.070;2022-11-15T04:31:49;10.90;99.90
11264;DHT22;5689;48.798;9.070;2022-11-15T04:34:35;10.90;99.90
11264;DHT22;5689;48.798;9.070;2022-11-15T04:37:23;10.90;99.90
11264;DHT22;5689;48.798;9.070;2022-11-15T04:40:10;10.90;99.90
11264;DHT22;5689;48.798;9.070;2022-11-15T04:42:57;10.90;99.90
11264;DHT22;5689;48.798;9.070;2022-11-15T04:45:47;10.90;99.90
11264;DHT22;5689;48.798;9.070;2022-11-15T04:48:35;10.80;99.90
11264;DHT22;5689;48.798;9.070;2022-11-15T04:51:21;10.80;99.90
11264;DHT22;5689;48.798;9.070;2022-11-15T04:54:08;10.70;99.90
11264;DHT22;5689;48.798;9.070;2022-11-15T04:56:54;10.60;99.90
11264;DHT22;5689;48.798;9.070;2022-11-15T04:59:40;10.60;99.90
11264;DHT22;5689;48.798;9.070;2022-11-15T05:02:27;10.50;99.90
11264;DHT22;5689;48.798;9.070;2022-11-15T05:05:35;10.50;99.90
11264;DHT22;5689;48.798;9.070;2022-11-15T05:08:20;10.50;99.90
11264;DHT22;5689;48.798;9.070;2022-11-15T05:11:07;10.50;99.90
11264;DHT22;5689;48.798;9.070;2022-11-15T05:13:54;10.50;99.90
11264;DHT22;5689;48.798;9.070;2022-11-15T05:16:40;10.50;99.90
11264;DHT22;5689;48.798;9.070;2022-11-15T05:19:26;10.50;99.90
11264;DHT22;5689;48.798;9.070;2022-11-15T05:22:14;10.50;99.90
11264;DHT22;5689;48.798;9.070;2022-11-15T05:25:00;10.40;99.90
11264;DHT22;5689;48.798;9.070;2022-11-15T05:27:47;10.50;99.90
11264;DHT22;5689;48.798;9.070;2022-11-15T05:30:33;10.60;99.90
11264;DHT22;5689;48.798;9.070;2022-11-15T05:33:20;10.60;99.90
11264;DHT22;5689;48.798;9.070;2022-11-15T05:36:11;10.60;99.90
11264;DHT22;5689;48.798;9.070;2022-11-15T05:39:02;10.60;99.90
11264;DHT22;5689;48.798;9.070;2022-11-15T05:41:53;10.60;99.90
11264;DHT22;5689;48.798;9.070;2022-11-15T05:44:43;10.70;99.90
11264;DHT22;5689;48.798;9.070;2022-11-15T05:47:30;10.80;99.90
11264;DHT22;5689;48.798;9.070;2022-11-15T05:50:18;10.80;99.90
11264;DHT22;5689;48.798;9.070;2022-11-15T05:53:05;10.90;99.90
11264;DHT22;5689;48.798;9.070;2022-11-15T05:55:53;10.80;99.90
11264;DHT22;5689;48.798;9.070;2022-11-15T05:58:41;10.80;99.90
11264;DHT22;5689;48.798;9.070;2022-11-15T06:01:27;10.70;99.90
11264;DHT22;5689;48.798;9.070;2022-11-15T06:04:14;10.70;99.90
11264;DHT22;5689;48.798;9.070;2022-11-15T06:07:01;10.70;99.90
11264;DHT22;5689;48.798;9.070;2022-11-15T06:09:47;10.70;99.90
11264;DHT22;5689;48.798;9.070;2022-11-15T06:12:35;10.70;99.90
11264;DHT22;5689;48.798;9.070;2022-11-15T06:15:22;10.70;99.90
11264;DHT22;5689;48.798;9.070;2022-11-15T06:18:08;10.70;99.90
11264;DHT22;5689;48.798;9.070;2022-11-15T06:20:58;10.70;99.90
11264;DHT22;5689;48.798;9.070;2022-11-15T06:23:45;10.70;99.90
11264;DHT22;5689;48.798;9.070;2022-11-15T06:26:32;10.70;99.90
11264;DHT22;5689;48.798;9.070;2022-11-15T06:29:19;10.80;99.90
11264;DHT22;5689;48.798;9.070;2022-11-15T06:32:06;10.80;99.90
11264;DHT22;5689;48.798;9.070;2022-11-15T06:34:52;10.90;99.90
11264;DHT22;5689;48.798;9.070;2022-11-15T06:37:39;10.90;99.90
11264;DHT22;5689;48.798;9.070;2022-11-15T06:40:26;11.00;99.90
11264;DHT22;5689;48.798;9.070;2022-11-15T06:43:13;10.90;99.90
11264;DHT22;5689;48.798;9.070;2022-11-15T06:46:01;11.00;99.90
11264;DHT22;5689;48.798;9.070;2022-11-15T06:48:50;11.00;99.90
11264;DHT22;5689;48.798;9.070;2022-11-15T06:51:37;11.00;99.90
11264;DHT22;5689;48.798;9.070;2022-11-15T06:54:24;10.90;99.90
11264;DHT22;5689;48.798;9.070;2022-11-15T06:57:10;10.90;99.90
11264;DHT22;5689;48.798;9.070;2022-11-15T06:59:56;10.90;99.90
11264;DHT22;5689;48.798;9.070;2022-11-15T07:02:44;10.90;99.90
11264;DHT22;5689;48.798;9.070;2022-11-15T07:05:31;10.90;99.90
11264;DHT22;5689;48.798;9.070;2022-11-15T07:08:18;11.00;99.90
11264;DHT22;5689;48.798;9.070;2022-11-15T07:11:06;11.00;99.90
11264;DHT22;5689;48.798;9.070;2022-11-15T07:13:52;11.10;99.90
11264;DHT22;5689;48.798;9.070;2022-11-15T07:16:39;11.20;99.90
11264;DHT22;5689;48.798;9.070;2022-11-15T07:19:26;11.30;99.90
11264;DHT22;5689;48.798;9.070;2022-11-15T07:22:13;11.40;99.90
11264;DHT22;5689;48.798;9.070;2022-11-15T07:24:59;11.60;99.90
11264;DHT22;5689;48.798;9.070;2022-11-15T07:27:54;11.70;99.90
11264;DHT22;5689;48.798;9.070;2022-11-15T07:30:41;11.80;99.90
11264;DHT22;5689;48.798;9.070;2022-11-15T07:33:29;11.90;99.90
11264;DHT22;5689;48.798;9.070;2022-11-15T07:36:17;12.10;99.90
11264;DHT22;5689;48.798;9.070;2022-11-15T07:39:04;12.10;99.90
11264;DHT22;5689;48.798;9.070;2022-11-15T07:41:50;12.30;99.90
11264;DHT22;5689;48.798;9.070;2022-11-15T07:44:57;12.30;99.90
11264;DHT22;5689;48.798;9.070;2022-11-15T07:47:45;12.50;99.90
11264;DHT22;5689;48.798;9.070;2022-11-15T07:50:31;12.50;99.90
11264;DHT22;5689;48.798;9.070;2022-11-15T07:53:19;12.50;99.90
11264;DHT22;5689;48.798;9.070;2022-11-15T07:56:06;12.60;99.90
11264;DHT22;5689;48.798;9.070;2022-11-15T07:58:52;12.70;99.90
11264;DHT22;5689;48.798;9.070;2022-11-15T08:01:38;12.60;99.90
11264;DHT22;5689;48.798;9.070;2022-11-15T08:04:25;12.60;99.90
11264;DHT22;5689;48.798;9.070;2022-11-15T08:07:11;12.70;99.90
11264;DHT22;5689;48.798;9.070;2022-11-15T08:09:59;12.80;99.90
11264;DHT22;5689;48.798;9.070;2022-11-15T08:12:46;13.00;99.90
11264;DHT22;5689;48.798;9.070;2022-11-15T08:15:33;13.20;99.90
11264;DHT22;5689;48.798;9.070;2022-11-15T08:18:20;13.40;99.90
11264;DHT22;5689;48.798;9.070;2022-11-15T08:21:09;13.50;99.90
11264;DHT22;5689;48.798;9.070;2022-11-15T08:23:58;13.40;99.90
11264;DHT22;5689;48.798;9.070;2022-11-15T08:26:46;13.60;99.90
11264;DHT22;5689;48.798;9.070;2022-11-15T08:29:32;13.70;99.90
11264;DHT22;5689;48.798;9.070;2022-11-15T08:32:18;14.00;99.90
11264;DHT22;5689;48.798;9.070;2022-11-15T08:35:06;14.00;99.90
11264;DHT22;5689;48.798;9.070;2022-11-15T08:37:53;14.20;99.90
11264;DHT22;5689;48.798;9.070;2022-11-15T08:40:40;14.20;99.90
11264;DHT22;5689;48.798;9.070;2022-11-15T08:43:28;14.20;99.90
11264;DHT22;5689;48.798;9.070;2022-11-15T08:46:15;14.80;99.90
11264;DHT22;5689;48.798;9.070;2022-11-15T08:49:02;15.00;99.90
11264;DHT22;5689;48.798;9.070;2022-11-15T08:51:48;15.20;99.90
11264;DHT22;5689;48.798;9.070;2022-11-15T08:54:34;15.90;99.90
11264;DHT22;5689;48.798;9.070;2022-11-15T08:57:21;16.70;99.90
11264;DHT22;5689;48.798;9.070;2022-11-15T09:00:10;17.60;99.90
11264;DHT22;5689;48.798;9.070;2022-11-15T09:02:57;18.20;99.90
11264;DHT22;5689;48.798;9.070;2022-11-15T09:05:44;17.60;99.90
11264;DHT22;5689;48.798;9.070;2022-11-15T09:08:31;17.10;99.90
11264;DHT22;5689;48.798;9.070;2022-11-15T09:11:30;17.40;99.90
11264;DHT22;5689;48.798;9.070;2022-11-15T09:14:17;18.30;99.90
11264;DHT22;5689;48.798;9.070;2022-11-15T09:17:07;18.40;99.90
11264;DHT22;5689;48.798;9.070;2022-11-15T09:19:54;18.50;99.80
11264;DHT22;5689;48.798;9.070;2022-11-15T09:22:40;16.80;99.90
11264;DHT22;5689;48.798;9.070;2022-11-15T09:25:27;15.80;99.90
11264;DHT22;5689;48.798;9.070;2022-11-15T09:28:13;15.50;99.90
11264;DHT22;5689;48.798;9.070;2022-11-15T09:31:01;16.00;99.90
11264;DHT22;5689;48.798;9.070;2022-11-15T09:33:49;16.70;99.90
11264;DHT22;5689;48.798;9.070;2022-11-15T09:36:36;16.20;99.90
11264;DHT22;5689;48.798;9.070;2022-11-15T09:39:22;16.00;99.90
11264;DHT22;5689;48.798;9.070;2022-11-15T09:42:23;15.90;99.90
11264;DHT22;5689;48.798;9.070;2022-11-15T09:45:17;17.20;99.90
11264;DHT22;5689;48.798;9.070;2022-11-15T09:51:43;17.50;99.90
11264;DHT22;5689;48.798;9.070;2022-11-15T09:54:21;17.20;99.90
11264;DHT22;5689;48.798;9.070;2022-11-15T09:57:13;16.30;99.90
11264;DHT22;5689;48.798;9.070;2022-11-15T10:00:07;16.30;99.90
11264;DHT22;5689;48.798;9.070;2022-11-15T10:03:07;16.40;99.90
11264;DHT22;5689;48.798;9.070;2022-11-15T10:05:39;16.30;99.90
11264;DHT22;5689;48.798;9.070;2022-11-15T10:08:25;16.40;99.90
11264;DHT22;5689;48.798;9.070;2022-11-15T10:11:00;16.50;99.90
11264;DHT22;5689;48.798;9.070;2022-11-15T10:13:50;16.50;99.90
11264;DHT22;5689;48.798;9.070;2022-11-15T10:19:35;15.80;99.90
11264;DHT22;5689;48.798;9.070;2022-11-15T10:22:20;16.10;99.90
11264;DHT22;5689;48.798;9.070;2022-11-15T10:24:57;16.50;99.90
11264;DHT22;5689;48.798;9.070;2022-11-15T10:27:27;16.50;99.90
11264;DHT22;5689;48.798;9.070;2022-11-15T10:29:56;16.50;99.90
11264;DHT22;5689;48.798;9.070;2022-11-15T10:32:25;16.20;99.90
11264;DHT22;5689;48.798;9.070;2022-11-15T10:34:53;16.00;99.90
11264;DHT22;5689;48.798;9.070;2022-11-15T10:37:28;16.10;99.90
11264;DHT22;5689;48.798;9.070;2022-11-15T10:40:06;15.90;99.90
11264;DHT22;5689;48.798;9.070;2022-11-15T10:42:34;15.90;99.90
11264;DHT22;5689;48.798;9.070;2022-11-15T10:45:23;15.80;99.90
11264;DHT22;5689;48.798;9.070;2022-11-15T10:47:52;15.70;99.90
11264;DHT22;5689;48.798;9.070;2022-11-15T10:50:28;16.00;99.90
11264;DHT22;5689;48.798;9.070;2022-11-15T10:52:58;16.00;99.90
11264;DHT22;5689;48.798;9.070;2022-11-15T10:55:31;16.10;99.90
11264;DHT22;5689;48.798;9.070;2022-11-15T11:00:48;15.90;99.90
11264;DHT22;5689;48.798;9.070;2022-11-15T11:03:31;15.80;99.90
11264;DHT22;5689;48.798;9.070;2022-11-15T11:06:07;15.80;99.90
11264;DHT22;5689;48.798;9.070;2022-11-15T11:08:35;15.70;99.90
11264;DHT22;5689;48.798;9.070;2022-11-15T11:11:05;15.60;99.90
11264;DHT22;5689;48.798;9.070;2022-11-15T11:13:35;15.60;99.90
11264;DHT22;5689;48.798;9.070;2022-11-15T11:16:21;15.60;99.90
11264;DHT22;5689;48.798;9.070;2022-11-15T11:18:57;15.70;99.90
11264;DHT22;5689;48.798;9.070;2022-11-15T11:21:41;15.70;99.90
11264;DHT22;5689;48.798;9.070;2022-11-15T11:24:18;16.00;99.90
11264;DHT22;5689;48.798;9.070;2022-11-15T11:27:13;16.10;99.90
11264;DHT22;5689;48.798;9.070;2022-11-15T11:29:55;16.20;99.90
11264;DHT22;5689;48.798;9.070;2022-11-15T11:35:25;16.30;99.90
11264;DHT22;5689;48.798;9.070;2022-11-15T11:38:04;16.50;99.90
11264;DHT22;5689;48.798;9.070;2022-11-15T11:40:40;16.70;99.90
11264;DHT22;5689;48.798;9.070;2022-11-15T11:43:19;16.70;99.90
11264;DHT22;5689;48.798;9.070;2022-11-15T11:46:09;16.90;99.90
11264;DHT22;5689;48.798;9.070;2022-11-15T11:48:41;17.30;99.90
11264;DHT22;5689;48.798;9.070;2022-11-15T11:51:15;17.50;99.90
11264;DHT22;5689;48.798;9.070;2022-11-15T11:53:49;17.40;99.90
11264;DHT22;5689;48.798;9.070;2022-11-15T11:56:24;17.20;99.90
11264;DHT22;5689;48.798;9.070;2022-11-15T11:58:57;17.70;99.90
11264;DHT22;5689;48.798;9.070;2022-11-15T12:01:32;18.10;99.90
11264;DHT22;5689;48.798;9.070;2022-11-15T12:04:05;18.40;99.90
11264;DHT22;5689;48.798;9.070;2022-11-15T12:06:41;17.70;99.90
11264;DHT22;5689;48.798;9.070;2022-11-15T12:09:15;17.70;99.90
11264;DHT22;5689;48.798;9.070;2022-11-15T12:11:51;17.70;99.90
11264;DHT22;5689;48.798;9.070;2022-11-15T12:14:28;17.90;99.90
11264;DHT22;5689;48.798;9.070;2022-11-15T12:16:58;17.80;99.90
11264;DHT22;5689;48.798;9.070;2022-11-15T12:19:26;16.90;99.90
11264;DHT22;5689;48.798;9.070;2022-11-15T12:22:00;16.50;99.90
11264;DHT22;5689;48.798;9.070;2022-11-15T12:24:34;16.30;99.90
11264;DHT22;5689;48.798;9.070;2022-11-15T12:27:07;16.30;99.90
11264;DHT22;5689;48.798;9.070;2022-11-15T12:29:45;16.20;99.90
11264;DHT22;5689;48.798;9.070;2022-11-15T12:32:24;16.30;99.90
11264;DHT22;5689;48.798;9.070;2022-11-15T12:34:53;16.20;99.90
11264;DHT22;5689;48.798;9.070;2022-11-15T12:37:52;15.80;99.90
11264;DHT22;5689;48.798;9.070;2022-11-15T12:40:34;16.00;99.90
11264;DHT22;5689;48.798;9.070;2022-11-15T12:46:06;16.00;99.90
11264;DHT22;5689;48.798;9.070;2022-11-15T12:48:56;15.80;99.90
11264;DHT22;5689;48.798;9.070;2022-11-15T12:55:08;16.10;99.90
11264;DHT22;5689;48.798;9.070;2022-11-15T12:57:49;15.90;99.90
11264;DHT22;5689;48.798;9.070;2022-11-15T13:00:45;15.80;99.90
11264;DHT22;5689;48.798;9.070;2022-11-15T13:03:26;15.80;99.90
11264;DHT22;5689;48.798;9.070;2022-11-15T13:06:36;16.00;99.90
11264;DHT22;5689;48.798;9.070;2022-11-15T13:09:51;16.10;99.90
11264;DHT22;5689;48.798;9.070;2022-11-15T13:12:49;16.10;99.90
11264;DHT22;5689;48.798;9.070;2022-11-15T13:15:36;16.10;99.90
11264;DHT22;5689;48.798;9.070;2022-11-15T13:18:30;16.10;99.90
11264;DHT22;5689;48.798;9.070;2022-11-15T13:20:59;15.90;99.90
11264;DHT22;5689;48.798;9.070;2022-11-15T13:23:28;15.90;99.90
11264;DHT22;5689;48.798;9.070;2022-11-15T13:26:14;15.90;99.90
11264;DHT22;5689;48.798;9.070;2022-11-15T13:28:45;15.70;99.90
11264;DHT22;5689;48.798;9.070;2022-11-15T13:31:36;15.80;99.90
11264;DHT22;5689;48.798;9.070;2022-11-15T13:34:21;15.60;99.90
11264;DHT22;5689;48.798;9.070;2022-11-15T13:37:13;15.30;99.90
11264;DHT22;5689;48.798;9.070;2022-11-15T13:40:00;15.40;99.90
11264;DHT22;5689;48.798;9.070;2022-11-15T13:42:37;15.50;99.90
11264;DHT22;5689;48.798;9.070;2022-11-15T13:45:13;15.50;99.90
11264;DHT22;5689;48.798;9.070;2022-11-15T13:47:42;15.50;99.90
11264;DHT22;5689;48.798;9.070;2022-11-15T13:50:13;15.50;99.90
11264;DHT22;5689;48.798;9.070;2022-11-15T13:52:42;15.20;99.90
11264;DHT22;5689;48.798;9.070;2022-11-15T13:55:14;15.20;99.90
11264;DHT22;5689;48.798;9.070;2022-11-15T13:57:45;15.00;99.90
11264;DHT22;5689;48.798;9.070;2022-11-15T14:00:35;14.70;99.90
11264;DHT22;5689;48.798;9.070;2022-11-15T14:03:15;14.70;99.90
11264;DHT22;5689;48.798;9.070;2022-11-15T14:06:00;14.70;99.90
11264;DHT22;5689;48.798;9.070;2022-11-15T14:08:30;14.70;99.90
11264;DHT22;5689;48.798;9.070;2022-11-15T14:11:15;14.70;99.90
11264;DHT22;5689;48.798;9.070;2022-11-15T14:14:02;14.70;99.90
11264;DHT22;5689;48.798;9.070;2022-11-15T14:16:34;14.60;99.90
11264;DHT22;5689;48.798;9.070;2022-11-15T14:19:04;14.60;99.90
11264;DHT22;5689;48.798;9.070;2022-11-15T14:21:33;14.60;99.90
11264;DHT22;5689;48.798;9.070;2022-11-15T14:24:14;14.60;99.90
11264;DHT22;5689;48.798;9.070;2022-11-15T14:26:43;14.40;99.90
11264;DHT22;5689;48.798;9.070;2022-11-15T14:29:24;14.30;99.90
11264;DHT22;5689;48.798;9.070;2022-11-15T14:31:53;14.30;99.90
11264;DHT22;5689;48.798;9.070;2022-11-15T14:34:21;14.30;99.90
11264;DHT22;5689;48.798;9.070;2022-11-15T14:36:51;14.10;99.90
11264;DHT22;5689;48.798;9.070;2022-11-15T14:39:19;13.90;99.90
11264;DHT22;5689;48.798;9.070;2022-11-15T14:41:48;13.90;99.90
11264;DHT22;5689;48.798;9.070;2022-11-15T14:44:16;14.00;99.90
11264;DHT22;5689;48.798;9.070;2022-11-15T14:46:45;14.00;99.90
11264;DHT22;5689;48.798;9.070;2022-11-15T14:49:14;14.10;99.90
11264;DHT22;5689;48.798;9.070;2022-11-15T14:51:43;14.20;99.90
11264;DHT22;5689;48.798;9.070;2022-11-15T14:54:12;14.10;99.90
11264;DHT22;5689;48.798;9.070;2022-11-15T14:56:40;14.20;99.90
11264;DHT22;5689;48.798;9.070;2022-11-15T14:59:09;14.20;99.90
11264;DHT22;5689;48.798;9.070;2022-11-15T15:01:37;14.00;99.90
11264;DHT22;5689;48.798;9.070;2022-11-15T15:04:05;14.00;99.90
11264;DHT22;5689;48.798;9.070;2022-11-15T15:06:33;13.90;99.90
11264;DHT22;5689;48.798;9.070;2022-11-15T15:09:01;13.90;99.90
11264;DHT22;5689;48.798;9.070;2022-11-15T15:11:32;13.80;99.90
11264;DHT22;5689;48.798;9.070;2022-11-15T15:14:00;13.80;99.90
11264;DHT22;5689;48.798;9.070;2022-11-15T15:16:28;13.70;99.90
11264;DHT22;5689;48.798;9.070;2022-11-15T15:18:56;13.80;99.90
11264;DHT22;5689;48.798;9.070;2022-11-15T15:21:25;13.60;99.90
11264;DHT22;5689;48.798;9.070;2022-11-15T15:23:56;13.50;99.90
11264;DHT22;5689;48.798;9.070;2022-11-15T15:26:25;13.20;99.90
11264;DHT22;5689;48.798;9.070;2022-11-15T15:28:54;12.90;99.90
11264;DHT22;5689;48.798;9.070;2022-11-15T15:31:22;12.80;99.90
11264;DHT22;5689;48.798;9.070;2022-11-15T15:33:50;12.70;99.90
11264;DHT22;5689;48.798;9.070;2022-11-15T15:36:18;12.70;99.90
11264;DHT22;5689;48.798;9.070;2022-11-15T15:38:46;12.70;99.90
11264;DHT22;5689;48.798;9.070;2022-11-15T15:41:15;12.70;99.90
11264;DHT22;5689;48.798;9.070;2022-11-15T15:43:44;12.70;99.90
11264;DHT22;5689;48.798;9.070;2022-11-15T15:46:15;12.70;99.90
11264;DHT22;5689;48.798;9.070;2022-11-15T15:48:44;12.80;99.90
11264;DHT22;5689;48.798;9.070;2022-11-15T15:51:12;12.80;99.90
11264;DHT22;5689;48.798;9.070;2022-11-15T15:53:45;12.90;99.90
11264;DHT22;5689;48.798;9.070;2022-11-15T15:56:13;12.90;99.90
11264;DHT22;5689;48.798;9.070;2022-11-15T15:58:41;12.90;99.90
11264;DHT22;5689;48.798;9.070;2022-11-15T16:01:09;12.90;99.90
11264;DHT22;5689;48.798;9.070;2022-11-15T16:03:39;12.90;99.90
11264;DHT22;5689;48.798;9.070;2022-11-15T16:06:25;12.90;99.90
11264;DHT22;5689;48.798;9.070;2022-11-15T16:09:00;13.00;99.90
11264;DHT22;5689;48.798;9.070;2022-11-15T16:11:39;13.00;99.90
11264;DHT22;5689;48.798;9.070;2022-11-15T16:14:08;13.00;99.90
11264;DHT22;5689;48.798;9.070;2022-11-15T16:16:37;13.00;99.90
11264;DHT22;5689;48.798;9.070;2022-11-15T16:19:07;13.00;99.90
11264;DHT22;5689;48.798;9.070;2022-11-15T16:21:36;13.00;99.90
11264;DHT22;5689;48.798;9.070;2022-11-15T16:24:04;13.00;99.90
11264;DHT22;5689;48.798;9.070;2022-11-15T16:26:33;13.10;99.90
11264;DHT22;5689;48.798;9.070;2022-11-15T16:29:02;13.10;99.90
11264;DHT22;5689;48.798;9.070;2022-11-15T16:31:30;13.10;99.90
11264;DHT22;5689;48.798;9.070;2022-11-15T16:33:58;13.20;99.90
11264;DHT22;5689;48.798;9.070;2022-11-15T16:36:30;13.20;99.90
11264;DHT22;5689;48.798;9.070;2022-11-15T16:39:00;13.20;99.90
11264;DHT22;5689;48.798;9.070;2022-11-15T16:41:30;13.20;99.90
11264;DHT22;5689;48.798;9.070;2022-11-15T16:43:58;13.30;99.90
11264;DHT22;5689;48.798;9.070;2022-11-15T16:46:27;13.30;99.90
11264;DHT22;5689;48.798;9.070;2022-11-15T16:48:55;13.20;99.90
11264;DHT22;5689;48.798;9.070;2022-11-15T16:51:23;13.20;99.90
11264;DHT22;5689;48.798;9.070;2022-11-15T16:53:53;13.20;99.90
11264;DHT22;5689;48.798;9.070;2022-11-15T16:56:24;13.20;99.90
11264;DHT22;5689;48.798;9.070;2022-11-15T16:58:53;13.20;99.90
11264;DHT22;5689;48.798;9.070;2022-11-15T17:01:23;13.20;99.90
11264;DHT22;5689;48.798;9.070;2022-11-15T17:03:51;13.20;99.90
11264;DHT22;5689;48.798;9.070;2022-11-15T17:06:20;13.20;99.90
11264;DHT22;5689;48.798;9.070;2022-11-15T17:08:48;13.20;99.90
11264;DHT22;5689;48.798;9.070;2022-11-15T17:11:19;13.10;99.90
11264;DHT22;5689;48.798;9.070;2022-11-15T17:13:48;13.10;99.90
11264;DHT22;5689;48.798;9.070;2022-11-15T17:16:17;13.10;99.90
11264;DHT22;5689;48.798;9.070;2022-11-15T17:18:50;13.10;99.90
11264;DHT22;5689;48.798;9.070;2022-11-15T17:21:20;13.10;99.90
11264;DHT22;5689;48.798;9.070;2022-11-15T17:23:48;13.10;99.90
11264;DHT22;5689;48.798;9.070;2022-11-15T17:26:17;13.10;99.90
11264;DHT22;5689;48.798;9.070;2022-11-15T17:29:03;13.10;99.90
11264;DHT22;5689;48.798;9.070;2022-11-15T17:31:34;13.10;99.90
11264;DHT22;5689;48.798;9.070;2022-11-15T17:34:03;13.10;99.90
11264;DHT22;5689;48.798;9.070;2022-11-15T17:36:31;13.10;99.90
11264;DHT22;5689;48.798;9.070;2022-11-15T17:38:59;13.10;99.90
11264;DHT22;5689;48.798;9.070;2022-11-15T17:41:29;13.10;99.90
11264;DHT22;5689;48.798;9.070;2022-11-15T17:43:58;13.10;99.90